Time;durP1;ratioP1;P1;durP2;ratioP2;P2;SDS_P1;SDS_P2;PMS_P1;PMS_P2;Temp;Humidity;BMP_temperature;BMP_pressure;BME280_temperature;BME280_humidity;BME280_pressure;Samples;Min_cycle;Max_cycle;Signal;HPM_P1;HPM_P2
2023/08/07 00:00:34;;;;;;;0.10;0.10;;;14.00;60.50;;;;;;5098329;28;20198;-59
2023/08/07 00:03:05;;;;;;;0.10;0.10;;;14.00;60.60;;;;;;5090903;28;20653;-59
2023/08/07 00:05:37;;;;;;;0.10;0.10;;;14.00;60.80;;;;;;5101550;28;20242;-62
2023/08/07 00:08:08;;;;;;;0.10;0.10;;;14.00;61.00;;;;;;5111959;27;20194;-61
2023/08/07 00:10:39;;;;;;;0.10;0.10;;;14.00;61.10;;;;;;5112032;28;20595;-61
2023/08/07 00:13:10;;;;;;;0.10;0.10;;;14.10;61.20;;;;;;5111813;28;20200;-61
2023/08/07 00:15:42;;;;;;;0.10;0.10;;;14.10;61.30;;;;;;5100801;28;20210;-61
2023/08/07 00:18:12;;;;;;;0.10;0.10;;;14.10;61.30;;;;;;5091077;28;20202;-61
2023/08/07 00:20:45;;;;;;;0.10;0.10;;;14.20;61.30;;;;;;5101116;28;20645;-61
2023/08/07 00:23:15;;;;;;;0.10;0.10;;;14.20;61.20;;;;;;5100219;28;20207;-59
2023/08/07 00:25:46;;;;;;;0.10;0.10;;;14.20;61.10;;;;;;5080902;28;20206;-59
2023/08/07 00:28:16;;;;;;;0.10;0.10;;;14.30;61.10;;;;;;5091040;28;20555;-59
2023/08/07 00:30:47;;;;;;;0.10;0.10;;;14.30;61.10;;;;;;5091360;28;20219;-59
2023/08/07 00:33:18;;;;;;;0.10;0.10;;;14.30;61.00;;;;;;5090968;28;20198;-61
2023/08/07 00:35:50;;;;;;;0.10;0.10;;;14.30;60.90;;;;;;5090706;28;20546;-61
2023/08/07 00:38:26;;;;;;;0.10;0.10;;;14.40;61.00;;;;;;5090393;28;20198;-60
2023/08/07 00:40:56;;;;;;;0.10;0.10;;;14.40;61.00;;;;;;5090562;28;20189;-61
2023/08/07 00:43:27;;;;;;;0.13;0.13;;;14.40;61.00;;;;;;5086709;28;20198;-58
2023/08/07 00:45:58;;;;;;;0.10;0.10;;;14.40;61.00;;;;;;5080421;28;20214;-59
2023/08/07 00:48:28;;;;;;;0.10;0.10;;;14.50;61.50;;;;;;5090456;28;20198;-62
2023/08/07 00:51:01;;;;;;;0.10;0.10;;;14.50;61.10;;;;;;5081326;28;20191;-61
2023/08/07 00:53:32;;;;;;;0.10;0.10;;;14.50;61.00;;;;;;5079043;28;20198;-61
2023/08/07 00:56:03;;;;;;;0.10;0.10;;;14.50;61.00;;;;;;5091289;28;20213;-60
2023/08/07 00:58:34;;;;;;;0.10;0.10;;;14.50;60.90;;;;;;5091194;28;20681;-61
2023/08/07 01:01:05;;;;;;;0.10;0.10;;;14.60;60.90;;;;;;5094344;28;20193;-59
2023/08/07 01:03:36;;;;;;;0.10;0.10;;;14.60;60.90;;;;;;5111083;28;20193;-60
2023/08/07 01:06:09;;;;;;;0.13;0.13;;;14.60;60.80;;;;;;5111102;28;20296;-60
2023/08/07 01:08:40;;;;;;;0.10;0.10;;;14.60;60.90;;;;;;5072993;28;20366;-61
2023/08/07 01:11:24;;;;;;;0.10;0.10;;;14.60;60.90;;;;;;5082149;28;20198;-62
2023/08/07 01:14:14;;;;;;;0.10;0.10;;;14.70;60.90;;;;;;5091585;28;20201;-60
2023/08/07 01:16:50;;;;;;;0.10;0.10;;;14.70;60.80;;;;;;5094685;28;20218;-61
2023/08/07 01:19:26;;;;;;;0.10;0.10;;;14.70;60.80;;;;;;5094814;28;20232;-59
2023/08/07 01:22:10;;;;;;;0.10;0.10;;;14.70;61.00;;;;;;5094548;28;20297;-61
2023/08/07 01:24:41;;;;;;;0.10;0.10;;;14.80;61.10;;;;;;5077559;28;20210;-61
2023/08/07 01:27:33;;;;;;;0.10;0.10;;;14.80;61.00;;;;;;5093013;28;20587;-61
2023/08/07 01:30:11;;;;;;;0.10;0.10;;;14.80;61.00;;;;;;5094924;28;20619;-59
2023/08/07 01:32:57;;;;;;;0.10;0.10;;;14.90;61.00;;;;;;5094313;28;20240;-61
2023/08/07 01:35:30;;;;;;;0.10;0.10;;;14.90;60.90;;;;;;5093663;28;20518;-60
2023/08/07 01:38:03;;;;;;;0.10;0.10;;;14.90;60.80;;;;;;5093959;28;20233;-59
2023/08/07 01:40:34;;;;;;;0.10;0.10;;;14.90;60.90;;;;;;5098029;28;20185;-59
2023/08/07 01:43:04;;;;;;;0.10;0.10;;;14.90;60.90;;;;;;5114821;28;20201;-61
2023/08/07 01:45:35;;;;;;;0.10;0.10;;;15.00;60.90;;;;;;5114689;28;20680;-61
2023/08/07 01:48:06;;;;;;;0.03;0.03;;;15.00;60.90;;;;;;5114279;28;20263;-59
2023/08/07 01:50:38;;;;;;;0.10;0.10;;;15.00;60.90;;;;;;5114678;28;20555;-59
2023/08/07 01:53:11;;;;;;;0.10;0.10;;;15.00;60.90;;;;;;5104004;28;20214;-61
2023/08/07 01:55:41;;;;;;;0.10;0.10;;;15.00;60.80;;;;;;5073978;28;20215;-61
2023/08/07 01:58:12;;;;;;;0.10;0.10;;;15.10;60.90;;;;;;5079768;28;20724;-61
2023/08/07 02:00:42;;;;;;;0.10;0.10;;;15.10;60.90;;;;;;5094538;28;20216;-59
2023/08/07 02:03:13;;;;;;;0.10;0.10;;;15.10;60.90;;;;;;5094232;28;20194;-62
2023/08/07 02:05:44;;;;;;;0.10;0.10;;;15.20;61.30;;;;;;5094396;28;20218;-61
2023/08/07 02:08:16;;;;;;;0.00;0.00;;;15.20;61.40;;;;;;5094335;28;20217;-60
2023/08/07 02:10:47;;;;;;;0.10;0.10;;;15.20;61.30;;;;;;5094268;28;20553;-61
2023/08/07 02:13:18;;;;;;;0.00;0.00;;;15.30;61.20;;;;;;5093961;28;20645;-59
2023/08/07 02:15:48;;;;;;;0.00;0.00;;;15.30;61.10;;;;;;5093903;28;20210;-61
2023/08/07 02:18:19;;;;;;;0.10;0.10;;;15.30;61.00;;;;;;5093811;28;20226;-62
2023/08/07 02:20:50;;;;;;;0.10;0.10;;;15.40;61.00;;;;;;5093503;28;20610;-61
2023/08/07 02:23:22;;;;;;;0.10;0.10;;;15.30;60.90;;;;;;5086903;28;20219;-59
2023/08/07 02:25:53;;;;;;;0.10;0.10;;;15.40;60.90;;;;;;5072758;28;20210;-60
2023/08/07 02:28:24;;;;;;;0.10;0.10;;;15.40;60.80;;;;;;5073488;28;20209;-60
2023/08/07 02:30:55;;;;;;;0.10;0.10;;;15.40;60.80;;;;;;5073762;28;20225;-59
2023/08/07 02:33:25;;;;;;;0.00;0.00;;;15.40;60.80;;;;;;5073508;28;20197;-62
2023/08/07 02:35:56;;;;;;;0.10;0.10;;;15.40;60.80;;;;;;5073555;28;20219;-59
2023/08/07 02:38:35;;;;;;;0.10;0.10;;;15.50;60.70;;;;;;5073916;28;20231;-60
2023/08/07 02:41:05;;;;;;;0.10;0.10;;;15.50;60.90;;;;;;5073433;28;20202;-59
2023/08/07 02:43:36;;;;;;;0.00;0.00;;;15.50;60.80;;;;;;5073787;28;20641;-61
2023/08/07 02:46:07;;;;;;;0.10;0.10;;;15.50;60.70;;;;;;5073368;28;20215;-59
2023/08/07 02:48:39;;;;;;;0.03;0.03;;;15.60;60.70;;;;;;5073252;28;20202;-58
2023/08/07 02:51:09;;;;;;;0.10;0.10;;;15.60;60.60;;;;;;5073522;28;20277;-60
2023/08/07 02:53:42;;;;;;;0.10;0.10;;;15.60;60.50;;;;;;5073425;28;20253;-58
2023/08/07 02:56:12;;;;;;;0.10;0.10;;;15.60;60.40;;;;;;5072710;28;20218;-58
2023/08/07 02:58:43;;;;;;;0.10;0.10;;;15.60;60.40;;;;;;5071615;28;20222;-60
2023/08/07 03:01:14;;;;;;;0.10;0.10;;;15.70;60.40;;;;;;5074298;28;20229;-59
2023/08/07 03:03:44;;;;;;;0.10;0.10;;;15.60;60.30;;;;;;5072663;28;20203;-60
2023/08/07 03:06:15;;;;;;;0.10;0.10;;;15.70;60.30;;;;;;5072534;28;20223;-59
2023/08/07 03:08:47;;;;;;;0.10;0.10;;;15.70;60.30;;;;;;5072624;28;20218;-59
2023/08/07 03:11:18;;;;;;;0.10;0.10;;;15.70;60.30;;;;;;5072768;28;20195;-59
2023/08/07 03:13:49;;;;;;;0.10;0.10;;;15.70;60.20;;;;;;5072813;28;20218;-61
2023/08/07 03:16:19;;;;;;;0.10;0.10;;;15.70;60.30;;;;;;5072298;28;20580;-61
2023/08/07 03:18:50;;;;;;;0.10;0.10;;;15.70;60.40;;;;;;5072168;28;20237;-59
2023/08/07 03:21:21;;;;;;;0.10;0.10;;;15.80;60.50;;;;;;5072247;28;20617;-61
2023/08/07 03:23:54;;;;;;;0.10;0.10;;;15.70;60.40;;;;;;5072355;28;20670;-60
2023/08/07 03:26:25;;;;;;;0.00;0.00;;;15.80;60.40;;;;;;5072685;28;20218;-61
2023/08/07 03:28:55;;;;;;;0.10;0.10;;;15.80;60.30;;;;;;5072566;28;20208;-58
2023/08/07 03:31:29;;;;;;;0.10;0.10;;;15.80;60.30;;;;;;5072404;28;20244;-61
2023/08/07 03:34:00;;;;;;;0.10;0.10;;;15.90;61.00;;;;;;5072393;28;20581;-59
2023/08/07 03:36:31;;;;;;;0.10;0.10;;;15.90;60.20;;;;;;5071725;28;20246;-61
2023/08/07 03:39:03;;;;;;;0.10;0.10;;;15.90;60.20;;;;;;5071480;28;20223;-58
2023/08/07 03:41:34;;;;;;;0.10;0.10;;;15.90;60.10;;;;;;5080499;28;20237;-61
2023/08/07 03:44:04;;;;;;;0.00;0.00;;;15.90;60.10;;;;;;5073674;28;20211;-61
2023/08/07 03:46:35;;;;;;;0.10;0.10;;;15.90;60.10;;;;;;5078255;28;20293;-60
2023/08/07 03:49:06;;;;;;;0.10;0.10;;;15.90;60.00;;;;;;5091347;28;20195;-59
2023/08/07 03:51:36;;;;;;;0.00;0.00;;;15.90;60.00;;;;;;5091865;28;20198;-61
2023/08/07 03:54:09;;;;;;;0.10;0.10;;;15.90;59.90;;;;;;5080637;28;20202;-61
2023/08/07 03:56:39;;;;;;;0.10;0.10;;;15.90;59.90;;;;;;5091438;28;20222;-60
2023/08/07 03:59:10;;;;;;;0.10;0.10;;;15.90;59.90;;;;;;5078166;28;20221;-60
2023/08/07 04:01:41;;;;;;;0.00;0.00;;;16.00;59.90;;;;;;5112727;28;20196;-60
2023/08/07 04:04:11;;;;;;;0.10;0.10;;;16.00;59.80;;;;;;5111677;28;20606;-61
2023/08/07 04:06:43;;;;;;;0.10;0.10;;;16.00;59.80;;;;;;5098273;28;20214;-59
2023/08/07 04:09:16;;;;;;;0.00;0.00;;;16.00;59.70;;;;;;5091501;28;20267;-60
2023/08/07 04:11:47;;;;;;;0.00;0.00;;;16.00;59.70;;;;;;5091116;28;20577;-60
2023/08/07 04:14:18;;;;;;;0.10;0.10;;;16.00;59.60;;;;;;5091859;28;20201;-61
2023/08/07 04:16:48;;;;;;;0.10;0.10;;;16.00;59.50;;;;;;5091410;28;20582;-60
2023/08/07 04:19:19;;;;;;;0.10;0.10;;;16.00;59.40;;;;;;5091292;28;20218;-60
2023/08/07 04:21:50;;;;;;;0.00;0.00;;;16.00;59.40;;;;;;5090962;28;20230;-59
2023/08/07 04:24:22;;;;;;;0.03;0.03;;;16.00;59.30;;;;;;5077726;28;20575;-58
2023/08/07 04:26:53;;;;;;;0.10;0.10;;;16.00;59.40;;;;;;5090895;28;20712;-59
2023/08/07 04:29:23;;;;;;;0.10;0.10;;;16.00;59.30;;;;;;5090399;28;20209;-61
2023/08/07 04:31:54;;;;;;;0.10;0.10;;;16.00;59.20;;;;;;5090481;28;20190;-59
2023/08/07 04:34:25;;;;;;;0.10;0.10;;;16.00;59.10;;;;;;5090559;28;20186;-61
2023/08/07 04:36:56;;;;;;;0.10;0.10;;;16.00;59.10;;;;;;5091665;28;20245;-58
2023/08/07 04:39:28;;;;;;;0.10;0.10;;;16.00;59.10;;;;;;5091755;28;20279;-58
2023/08/07 04:41:59;;;;;;;0.10;0.10;;;16.10;59.10;;;;;;5090992;28;20654;-59
2023/08/07 04:44:30;;;;;;;0.03;0.03;;;16.10;59.10;;;;;;5091341;28;20204;-60
2023/08/07 04:47:00;;;;;;;0.10;0.10;;;16.10;59.00;;;;;;5091800;28;20214;-61
2023/08/07 04:49:31;;;;;;;0.10;0.10;;;16.10;59.00;;;;;;5093891;28;20213;-59
2023/08/07 04:52:01;;;;;;;0.10;0.10;;;16.10;59.10;;;;;;5095666;28;20201;-59
2023/08/07 04:54:34;;;;;;;0.10;0.10;;;16.10;59.10;;;;;;5080187;28;20654;-59
2023/08/07 04:57:05;;;;;;;0.10;0.10;;;16.10;59.10;;;;;;5095492;28;20220;-59
2023/08/07 04:59:35;;;;;;;0.10;0.10;;;16.10;59.10;;;;;;5084133;28;20225;-59
2023/08/07 05:02:06;;;;;;;0.10;0.10;;;16.20;59.10;;;;;;5095159;28;20201;-61
2023/08/07 05:04:37;;;;;;;0.03;0.03;;;16.20;59.00;;;;;;5095274;28;20194;-61
2023/08/07 05:07:07;;;;;;;0.10;0.10;;;16.20;59.00;;;;;;5094617;28;20241;-61
2023/08/07 05:09:40;;;;;;;0.00;0.00;;;16.20;59.00;;;;;;5095215;28;20198;-61
2023/08/07 05:12:11;;;;;;;0.10;0.10;;;16.20;59.00;;;;;;5090975;28;20645;-59
2023/08/07 05:14:42;;;;;;;0.10;0.10;;;16.20;58.90;;;;;;5077061;28;20256;-61
2023/08/07 05:17:12;;;;;;;0.10;0.10;;;16.20;58.90;;;;;;5094386;28;20621;-60
2023/08/07 05:19:43;;;;;;;0.00;0.00;;;16.30;58.90;;;;;;5094011;28;20313;-57
2023/08/07 05:22:14;;;;;;;0.10;0.10;;;16.30;58.90;;;;;;5094155;28;20701;-59
2023/08/07 05:24:48;;;;;;;0.00;0.00;;;16.30;58.90;;;;;;5078001;28;20203;-60
2023/08/07 05:27:19;;;;;;;0.10;0.10;;;16.30;58.90;;;;;;5093769;28;20304;-60
2023/08/07 05:29:49;;;;;;;0.10;0.10;;;16.30;59.40;;;;;;5094340;28;20190;-61
2023/08/07 05:32:20;;;;;;;0.10;0.10;;;16.30;58.80;;;;;;5094322;28;20197;-61
2023/08/07 05:34:51;;;;;;;0.10;0.10;;;16.30;58.80;;;;;;5088286;28;20198;-60
2023/08/07 05:37:21;;;;;;;0.10;0.10;;;16.30;58.80;;;;;;5115191;28;20213;-62
2023/08/07 05:39:54;;;;;;;0.00;0.00;;;16.30;58.80;;;;;;5115300;28;20201;-61
2023/08/07 05:42:24;;;;;;;0.03;0.03;;;16.30;58.90;;;;;;5115417;28;20198;-60
2023/08/07 05:44:55;;;;;;;0.00;0.00;;;16.30;58.80;;;;;;5114756;28;20201;-60
2023/08/07 05:47:26;;;;;;;0.10;0.10;;;16.30;58.70;;;;;;5114290;28;20542;-60
2023/08/07 05:49:56;;;;;;;0.08;0.08;;;16.30;58.70;;;;;;5114271;28;20618;-59
2023/08/07 05:52:27;;;;;;;0.10;0.10;;;16.30;58.70;;;;;;5097847;28;20201;-60
2023/08/07 05:54:59;;;;;;;0.10;0.10;;;16.30;58.60;;;;;;5075781;28;20202;-60
2023/08/07 05:57:30;;;;;;;0.00;0.00;;;16.30;58.70;;;;;;5093769;28;20198;-61
2023/08/07 06:00:01;;;;;;;0.10;0.10;;;16.30;58.50;;;;;;5092922;28;20536;-60
2023/08/07 06:02:31;;;;;;;0.10;0.10;;;16.30;58.50;;;;;;5093663;28;20646;-59
2023/08/07 06:05:02;;;;;;;0.08;0.08;;;16.30;59.10;;;;;;5093639;28;20198;-60
2023/08/07 06:07:32;;;;;;;0.10;0.10;;;16.30;58.50;;;;;;5093900;28;20190;-62
2023/08/07 06:10:05;;;;;;;0.10;0.10;;;16.30;58.50;;;;;;5095082;28;20654;-59
2023/08/07 06:12:36;;;;;;;0.00;0.00;;;16.30;58.50;;;;;;5114025;28;20215;-60
2023/08/07 06:15:07;;;;;;;0.10;0.10;;;16.30;58.50;;;;;;5097349;28;20197;-61
2023/08/07 06:17:39;;;;;;;0.00;0.00;;;16.30;58.50;;;;;;5093689;28;20590;-61
2023/08/07 06:20:11;;;;;;;0.03;0.03;;;16.30;58.50;;;;;;5093064;28;20266;-59
2023/08/07 06:22:43;;;;;;;0.00;0.00;;;16.30;58.40;;;;;;5092123;28;20237;-59
2023/08/07 06:25:15;;;;;;;0.10;0.10;;;16.30;58.30;;;;;;5075723;28;20187;-59
2023/08/07 06:27:46;;;;;;;0.00;0.00;;;16.30;58.20;;;;;;5093502;28;20759;-61
2023/08/07 06:30:17;;;;;;;0.03;0.03;;;16.30;58.20;;;;;;5092983;28;20592;-61
2023/08/07 06:32:48;;;;;;;0.10;0.10;;;16.20;58.10;;;;;;5093503;28;20653;-62
2023/08/07 06:35:18;;;;;;;0.10;0.10;;;16.20;58.00;;;;;;5084647;28;20185;-60
2023/08/07 06:37:49;;;;;;;0.10;0.10;;;16.20;58.10;;;;;;5113789;28;20822;-60
2023/08/07 06:40:21;;;;;;;0.10;0.10;;;16.20;58.00;;;;;;5113917;28;20205;-59
2023/08/07 06:42:54;;;;;;;0.03;0.03;;;16.20;58.00;;;;;;5102462;28;20650;-59
2023/08/07 06:45:25;;;;;;;0.00;0.00;;;16.20;58.10;;;;;;5075843;28;20693;-59
2023/08/07 06:47:55;;;;;;;0.10;0.10;;;16.20;58.10;;;;;;5092725;28;20225;-59
2023/08/07 06:50:26;;;;;;;0.00;0.00;;;16.20;58.00;;;;;;5084362;28;20190;-59
2023/08/07 06:52:57;;;;;;;0.10;0.10;;;16.20;58.00;;;;;;5089310;28;20202;-59
2023/08/07 06:55:29;;;;;;;0.10;0.10;;;16.10;57.90;;;;;;5076094;28;20218;-59
2023/08/07 06:58:00;;;;;;;0.10;0.10;;;16.20;58.00;;;;;;5093206;28;20199;-59
2023/08/07 07:00:31;;;;;;;0.00;0.00;;;16.20;58.00;;;;;;5092981;28;20193;-59
2023/08/07 07:03:01;;;;;;;0.10;0.10;;;16.10;57.90;;;;;;5093167;28;20194;-59
2023/08/07 07:05:32;;;;;;;0.10;0.10;;;16.10;57.90;;;;;;5092452;28;20218;-59
2023/08/07 07:08:03;;;;;;;0.10;0.10;;;16.10;57.90;;;;;;5093059;28;20194;-59
2023/08/07 07:10:35;;;;;;;0.10;0.10;;;16.10;57.90;;;;;;5092421;28;20197;-59
2023/08/07 07:13:07;;;;;;;0.10;0.10;;;16.10;57.90;;;;;;5092573;28;20211;-59
2023/08/07 07:15:38;;;;;;;0.10;0.10;;;16.10;57.90;;;;;;5092389;28;20263;-58
2023/08/07 07:18:09;;;;;;;0.00;0.00;;;16.10;57.90;;;;;;5091892;28;20198;-59
2023/08/07 07:20:39;;;;;;;0.05;0.05;;;16.10;57.90;;;;;;5076592;28;20194;-58
2023/08/07 07:23:10;;;;;;;0.10;0.10;;;16.10;57.90;;;;;;5087673;28;20211;-58
2023/08/07 07:25:42;;;;;;;0.10;0.10;;;16.10;57.90;;;;;;5075041;28;20214;-58
2023/08/07 07:28:13;;;;;;;0.10;0.10;;;16.00;57.80;;;;;;5092077;28;20715;-58
2023/08/07 07:30:43;;;;;;;0.00;0.00;;;16.00;57.80;;;;;;5092909;28;20194;-58
2023/08/07 07:33:15;;;;;;;0.05;0.05;;;16.00;57.90;;;;;;5091597;28;20201;-58
2023/08/07 07:35:45;;;;;;;0.10;0.10;;;16.00;57.80;;;;;;5071575;28;20242;-59
2023/08/07 07:38:16;;;;;;;0.10;0.10;;;16.00;57.80;;;;;;5072590;28;20190;-59
2023/08/07 07:40:48;;;;;;;0.10;0.10;;;16.00;57.80;;;;;;5072482;28;20194;-58
2023/08/07 07:43:19;;;;;;;0.10;0.10;;;16.00;57.80;;;;;;5071958;28;20198;-58
2023/08/07 07:45:50;;;;;;;0.08;0.08;;;16.00;57.90;;;;;;5091096;28;20225;-58
2023/08/07 07:48:20;;;;;;;0.10;0.10;;;16.00;57.90;;;;;;5092018;28;20560;-58
2023/08/07 07:50:52;;;;;;;0.10;0.10;;;16.00;57.80;;;;;;5091434;28;20194;-58
2023/08/07 07:53:23;;;;;;;0.10;0.10;;;16.00;57.80;;;;;;5084927;28;20206;-58
2023/08/07 07:55:56;;;;;;;0.10;0.10;;;15.90;57.80;;;;;;5071662;28;20215;-58
2023/08/07 07:58:26;;;;;;;0.10;0.10;;;16.00;57.80;;;;;;5071693;28;20709;-58
2023/08/07 08:00:57;;;;;;;0.03;0.03;;;15.90;57.80;;;;;;5071687;28;20591;-58
2023/08/07 08:03:27;;;;;;;0.10;0.10;;;15.90;57.80;;;;;;5071591;28;20203;-58
2023/08/07 08:05:58;;;;;;;0.10;0.10;;;15.90;57.80;;;;;;5085718;28;20210;-59
2023/08/07 08:08:29;;;;;;;0.00;0.00;;;15.90;57.80;;;;;;5091703;28;20194;-58
2023/08/07 08:11:01;;;;;;;0.10;0.10;;;15.90;57.80;;;;;;5091861;28;20201;-58
2023/08/07 08:13:32;;;;;;;0.10;0.10;;;15.90;57.80;;;;;;5091937;28;20194;-58
2023/08/07 08:16:03;;;;;;;0.00;0.00;;;15.90;57.80;;;;;;5090577;28;20217;-58
2023/08/07 08:18:33;;;;;;;0.10;0.10;;;15.90;57.90;;;;;;5091745;28;20198;-58
2023/08/07 08:21:04;;;;;;;0.05;0.05;;;15.90;57.80;;;;;;5091332;28;20190;-58
2023/08/07 08:23:34;;;;;;;0.10;0.10;;;15.80;57.80;;;;;;5083090;28;20681;-58
2023/08/07 08:26:07;;;;;;;0.00;0.00;;;15.80;57.80;;;;;;5071821;28;20219;-58
2023/08/07 08:28:38;;;;;;;0.10;0.10;;;15.90;57.80;;;;;;5071575;28;20191;-58
2023/08/07 08:31:09;;;;;;;0.10;0.10;;;15.80;57.80;;;;;;5071450;28;20204;-58
2023/08/07 08:33:40;;;;;;;0.10;0.10;;;15.80;57.80;;;;;;5070991;28;20209;-58
2023/08/07 08:36:10;;;;;;;0.10;0.10;;;15.80;57.80;;;;;;5071195;28;20251;-59
2023/08/07 08:38:41;;;;;;;0.10;0.10;;;15.80;57.80;;;;;;5071147;28;20202;-58
2023/08/07 08:41:14;;;;;;;0.10;0.10;;;15.80;57.80;;;;;;5071239;28;20201;-58
2023/08/07 08:43:45;;;;;;;0.10;0.10;;;15.80;57.80;;;;;;5071592;28;20198;-67
2023/08/07 08:46:18;;;;;;;0.10;0.10;;;15.80;57.60;;;;;;5071134;28;20215;-64
2023/08/07 08:48:53;;;;;;;0.10;0.10;;;15.70;56.90;;;;;;5070591;28;20298;-59
2023/08/07 08:51:24;;;;;;;0.10;0.10;;;15.70;56.30;;;;;;5070976;28;20202;-58
2023/08/07 08:53:56;;;;;;;0.10;0.10;;;15.70;55.90;;;;;;5070952;28;20205;-58
2023/08/07 08:56:28;;;;;;;0.10;0.10;;;15.60;55.90;;;;;;5073381;28;20211;-58
2023/08/07 08:58:59;;;;;;;0.10;0.10;;;15.50;56.00;;;;;;5069206;28;20805;-58
2023/08/07 09:01:31;;;;;;;0.10;0.10;;;15.50;56.30;;;;;;5070675;28;20195;-58
2023/08/07 09:04:04;;;;;;;0.10;0.10;;;15.50;56.40;;;;;;5073574;28;20201;-58
2023/08/07 09:06:35;;;;;;;0.10;0.10;;;15.50;56.60;;;;;;5076084;28;20218;-58
2023/08/07 09:09:06;;;;;;;0.10;0.10;;;15.40;56.60;;;;;;5078629;28;20201;-58
2023/08/07 09:11:40;;;;;;;0.10;0.10;;;15.40;56.60;;;;;;5110862;28;20194;-58
2023/08/07 09:14:12;;;;;;;0.10;0.10;;;15.40;56.60;;;;;;5110577;28;20596;-58
2023/08/07 09:16:43;;;;;;;0.10;0.10;;;15.40;56.70;;;;;;5091091;28;20221;-58
2023/08/07 09:19:14;;;;;;;0.10;0.10;;;15.40;56.80;;;;;;5083363;28;20217;-58
2023/08/07 09:21:44;;;;;;;0.10;0.10;;;15.40;56.80;;;;;;5068314;28;20213;-58
2023/08/07 09:24:18;;;;;;;0.10;0.10;;;15.40;56.80;;;;;;5074900;28;20190;-58
2023/08/07 09:26:53;;;;;;;0.10;0.10;;;15.40;56.80;;;;;;5090607;28;20210;-58
2023/08/07 09:29:24;;;;;;;0.10;0.10;;;15.40;56.90;;;;;;5090312;28;20189;-58
2023/08/07 09:31:56;;;;;;;0.10;0.10;;;15.40;56.90;;;;;;5090482;28;20193;-58
2023/08/07 09:34:27;;;;;;;0.10;0.10;;;15.40;56.90;;;;;;5082803;28;20198;-58
2023/08/07 09:36:59;;;;;;;0.10;0.10;;;15.50;57.00;;;;;;5093353;28;20237;-58
2023/08/07 09:39:29;;;;;;;0.10;0.10;;;15.40;56.90;;;;;;5099108;28;20560;-58
2023/08/07 09:42:02;;;;;;;0.00;0.00;;;15.50;57.00;;;;;;5113772;28;20696;-57
2023/08/07 09:44:39;;;;;;;0.00;0.00;;;15.50;57.00;;;;;;5114514;27;20189;-59
2023/08/07 09:47:16;;;;;;;0.10;0.10;;;15.50;57.10;;;;;;5114565;28;20221;-58
2023/08/07 09:49:47;;;;;;;0.10;0.10;;;15.40;57.00;;;;;;5113949;28;20655;-59
2023/08/07 09:52:18;;;;;;;0.10;0.10;;;15.40;57.00;;;;;;5113636;27;20306;-58
2023/08/07 09:54:49;;;;;;;0.05;0.05;;;15.40;57.00;;;;;;5087172;28;20672;-58
2023/08/07 09:57:22;;;;;;;0.10;0.10;;;15.40;57.00;;;;;;5094860;28;20226;-59
2023/08/07 09:59:54;;;;;;;0.10;0.10;;;15.50;57.10;;;;;;5100751;28;20282;-58
2023/08/07 10:02:25;;;;;;;0.10;0.10;;;15.50;57.10;;;;;;5114336;28;20193;-58
2023/08/07 10:04:57;;;;;;;0.05;0.05;;;15.40;57.10;;;;;;5113586;28;20194;-58
2023/08/07 10:07:28;;;;;;;0.10;0.10;;;15.50;57.10;;;;;;5108967;28;20233;-58
2023/08/07 10:10:00;;;;;;;0.10;0.10;;;15.50;57.10;;;;;;5101981;28;20194;-58
2023/08/07 10:12:34;;;;;;;0.00;0.00;;;15.50;57.20;;;;;;5113859;28;20201;-59
2023/08/07 10:15:05;;;;;;;0.10;0.10;;;15.50;57.20;;;;;;5113241;28;20201;-58
2023/08/07 10:17:36;;;;;;;0.10;0.10;;;15.50;57.20;;;;;;5113719;28;20193;-58
2023/08/07 10:20:07;;;;;;;0.10;0.10;;;15.50;57.20;;;;;;5113503;28;20220;-58
2023/08/07 10:22:39;;;;;;;0.10;0.10;;;15.50;57.20;;;;;;5112326;27;20225;-58
2023/08/07 10:25:10;;;;;;;0.10;0.10;;;15.40;57.20;;;;;;5082226;28;20202;-58
2023/08/07 10:27:45;;;;;;;0.10;0.10;;;15.50;57.20;;;;;;5093356;28;20214;-58
2023/08/07 10:30:19;;;;;;;0.00;0.00;;;15.40;57.20;;;;;;5092735;28;20197;-58
2023/08/07 10:32:50;;;;;;;0.10;0.10;;;15.50;57.20;;;;;;5093382;28;20723;-58
2023/08/07 10:35:33;;;;;;;0.10;0.10;;;15.40;57.20;;;;;;5092957;28;20194;-58
2023/08/07 10:38:10;;;;;;;0.10;0.10;;;15.40;57.20;;;;;;5093207;28;20836;-58
2023/08/07 10:41:02;;;;;;;0.10;0.10;;;15.50;57.20;;;;;;5092960;28;20233;-58
2023/08/07 10:43:40;;;;;;;0.10;0.10;;;15.40;57.20;;;;;;5094339;28;20230;-58
2023/08/07 10:46:13;;;;;;;0.10;0.10;;;15.40;57.10;;;;;;5092238;28;20681;-58
2023/08/07 10:48:45;;;;;;;0.10;0.10;;;15.50;57.20;;;;;;5093530;28;20193;-58
2023/08/07 10:51:17;;;;;;;0.10;0.10;;;15.40;57.20;;;;;;5092483;28;20255;-58
2023/08/07 10:53:51;;;;;;;0.00;0.00;;;15.40;57.20;;;;;;5085216;28;20662;-58
2023/08/07 10:56:33;;;;;;;0.10;0.10;;;15.40;57.20;;;;;;5092738;28;20213;-58
2023/08/07 10:59:12;;;;;;;0.10;0.10;;;15.40;57.30;;;;;;5093017;28;20182;-57
2023/08/07 11:01:45;;;;;;;0.10;0.10;;;15.40;57.30;;;;;;5091449;28;20197;-58
2023/08/07 11:04:16;;;;;;;0.10;0.10;;;15.40;57.20;;;;;;5071821;28;20678;-58
2023/08/07 11:06:50;;;;;;;0.00;0.00;;;15.40;57.20;;;;;;5092292;28;20217;-58
2023/08/07 11:09:20;;;;;;;0.10;0.10;;;15.40;57.60;;;;;;5092214;28;20198;-58
2023/08/07 11:11:51;;;;;;;0.03;0.03;;;15.40;57.30;;;;;;5112364;28;20189;-58
2023/08/07 11:14:24;;;;;;;0.10;0.10;;;15.40;57.30;;;;;;5071888;28;20249;-58
2023/08/07 11:16:56;;;;;;;0.10;0.10;;;15.40;57.40;;;;;;5074403;28;20625;-58
2023/08/07 11:19:27;;;;;;;0.10;0.10;;;15.40;57.30;;;;;;5071900;28;20191;-58
2023/08/07 11:21:59;;;;;;;0.10;0.10;;;15.40;57.90;;;;;;5092854;28;20200;-58
2023/08/07 11:24:31;;;;;;;0.10;0.10;;;15.40;57.30;;;;;;5075231;28;20206;-58
2023/08/07 11:27:01;;;;;;;0.10;0.10;;;15.40;57.30;;;;;;5075409;28;20544;-58
2023/08/07 11:29:36;;;;;;;0.10;0.10;;;15.40;57.30;;;;;;5092177;28;20205;-58
2023/08/07 11:32:07;;;;;;;0.10;0.10;;;15.40;57.30;;;;;;5070993;28;20696;-58
2023/08/07 11:34:38;;;;;;;0.10;0.10;;;15.40;57.30;;;;;;5071882;28;20198;-58
2023/08/07 11:37:09;;;;;;;0.10;0.10;;;15.40;57.30;;;;;;5092052;28;20712;-58
2023/08/07 11:39:46;;;;;;;0.10;0.10;;;15.40;57.30;;;;;;5092309;28;20623;-58
2023/08/07 11:42:17;;;;;;;0.05;0.05;;;15.40;57.40;;;;;;5092437;28;20190;-58
2023/08/07 11:44:50;;;;;;;0.10;0.10;;;15.40;57.40;;;;;;5091889;28;20194;-58
2023/08/07 11:47:21;;;;;;;0.10;0.10;;;15.40;57.30;;;;;;5092054;28;20222;-58
2023/08/07 11:49:54;;;;;;;0.10;0.10;;;15.40;57.30;;;;;;5091430;28;20217;-58
2023/08/07 11:52:25;;;;;;;0.10;0.10;;;15.40;57.40;;;;;;5077734;28;20199;-58
2023/08/07 11:54:56;;;;;;;0.10;0.10;;;15.40;57.40;;;;;;5091832;28;20198;-58
2023/08/07 11:57:29;;;;;;;0.10;0.10;;;15.30;57.60;;;;;;5091520;28;20290;-58
2023/08/07 12:00:03;;;;;;;0.10;0.10;;;15.30;57.30;;;;;;5092290;28;20638;-58
2023/08/07 12:02:37;;;;;;;0.10;0.10;;;15.30;57.30;;;;;;5091890;28;20181;-58
2023/08/07 12:05:12;;;;;;;0.10;0.10;;;15.30;57.30;;;;;;5090195;28;20208;-58
2023/08/07 12:07:43;;;;;;;0.10;0.10;;;15.30;57.30;;;;;;5092250;28;20260;-58
2023/08/07 12:10:14;;;;;;;0.10;0.10;;;15.30;57.30;;;;;;5092154;28;20198;-58
2023/08/07 12:12:46;;;;;;;0.08;0.08;;;15.30;57.30;;;;;;5092285;28;20674;-58
2023/08/07 12:15:20;;;;;;;0.13;0.13;;;15.30;57.30;;;;;;5092265;28;20194;-58
2023/08/07 12:17:51;;;;;;;0.10;0.10;;;15.30;57.30;;;;;;5092177;28;20693;-58
2023/08/07 12:20:21;;;;;;;0.10;0.10;;;15.30;57.30;;;;;;5091573;28;20233;-58
2023/08/07 12:22:52;;;;;;;0.10;0.10;;;15.30;57.30;;;;;;5088962;28;20270;-58
2023/08/07 12:25:23;;;;;;;0.10;0.10;;;15.30;57.30;;;;;;5071957;28;20231;-58
2023/08/07 12:27:53;;;;;;;0.10;0.10;;;15.30;57.30;;;;;;5071737;28;20198;-58
2023/08/07 12:30:26;;;;;;;0.10;0.10;;;15.20;57.20;;;;;;5088468;28;20217;-58
2023/08/07 12:32:56;;;;;;;0.10;0.10;;;15.20;57.30;;;;;;5091391;28;20198;-58
2023/08/07 12:35:27;;;;;;;0.10;0.10;;;15.20;57.20;;;;;;5091184;28;20214;-58
2023/08/07 12:37:58;;;;;;;0.10;0.10;;;15.20;57.30;;;;;;5091410;28;20198;-58
2023/08/07 12:40:29;;;;;;;0.10;0.10;;;15.20;57.20;;;;;;5091806;28;20252;-58
2023/08/07 12:43:01;;;;;;;0.10;0.10;;;15.20;57.20;;;;;;5091979;28;20194;-58
2023/08/07 12:45:33;;;;;;;0.00;0.00;;;15.20;57.20;;;;;;5091316;28;20218;-58
2023/08/07 12:48:04;;;;;;;0.10;0.10;;;15.20;57.20;;;;;;5091616;28;20194;-58
2023/08/07 12:50:34;;;;;;;0.10;0.10;;;15.20;57.20;;;;;;5091598;28;20198;-58
2023/08/07 12:53:05;;;;;;;0.00;0.00;;;15.20;57.20;;;;;;5087338;28;20198;-58
2023/08/07 12:55:36;;;;;;;0.10;0.10;;;15.20;57.20;;;;;;5071750;28;20215;-58
2023/08/07 12:58:07;;;;;;;0.10;0.10;;;15.20;57.20;;;;;;5073206;28;20576;-58
2023/08/07 13:00:39;;;;;;;0.15;0.15;;;15.20;57.20;;;;;;5071151;28;20222;-58
2023/08/07 13:03:10;;;;;;;0.10;0.10;;;15.10;57.10;;;;;;5071432;28;20678;-58
2023/08/07 13:05:40;;;;;;;0.10;0.10;;;15.10;57.20;;;;;;5070753;28;20221;-58
2023/08/07 13:08:11;;;;;;;0.10;0.10;;;15.10;57.20;;;;;;5070989;28;20202;-58
2023/08/07 13:10:42;;;;;;;0.10;0.10;;;15.10;57.10;;;;;;5076869;28;20209;-58